sensor_id;sensor_type;location;lat;lon;timestamp;temperature;humidity
12655;DHT22;6392;44.644;11.448;2023-01-24T00:00:20;6.00;99.90
12655;DHT22;6392;44.644;11.448;2023-01-24T00:02:47;6.00;99.90
12655;DHT22;6392;44.644;11.448;2023-01-24T00:05:14;6.00;99.90
12655;DHT22;6392;44.644;11.448;2023-01-24T00:07:41;5.90;99.90
12655;DHT22;6392;44.644;11.448;2023-01-24T00:10:09;6.00;99.90
12655;DHT22;6392;44.644;11.448;2023-01-24T00:12:37;5.90;99.90
12655;DHT22;6392;44.644;11.448;2023-01-24T00:15:05;5.90;99.90
12655;DHT22;6392;44.644;11.448;2023-01-24T00:17:33;5.90;99.90
12655;DHT22;6392;44.644;11.448;2023-01-24T00:20:00;5.90;99.90
12655;DHT22;6392;44.644;11.448;2023-01-24T00:22:28;5.90;99.90
12655;DHT22;6392;44.644;11.448;2023-01-24T00:24:55;5.90;99.90
12655;DHT22;6392;44.644;11.448;2023-01-24T00:27:22;5.90;99.90
12655;DHT22;6392;44.644;11.448;2023-01-24T00:29:49;6.00;99.90
12655;DHT22;6392;44.644;11.448;2023-01-24T00:32:15;6.00;99.90
12655;DHT22;6392;44.644;11.448;2023-01-24T00:34:44;5.90;99.90
12655;DHT22;6392;44.644;11.448;2023-01-24T00:37:11;5.90;99.90
12655;DHT22;6392;44.644;11.448;2023-01-24T00:39:38;5.80;99.90
12655;DHT22;6392;44.644;11.448;2023-01-24T00:42:05;5.80;99.90
12655;DHT22;6392;44.644;11.448;2023-01-24T00:44:32;5.80;99.90
12655;DHT22;6392;44.644;11.448;2023-01-24T00:46:59;5.70;99.90
12655;DHT22;6392;44.644;11.448;2023-01-24T00:49:26;5.70;99.90
12655;DHT22;6392;44.644;11.448;2023-01-24T00:51:55;5.70;99.90
12655;DHT22;6392;44.644;11.448;2023-01-24T00:54:22;5.70;99.90
12655;DHT22;6392;44.644;11.448;2023-01-24T00:56:49;5.70;99.90
12655;DHT22;6392;44.644;11.448;2023-01-24T00:59:16;5.70;99.90
12655;DHT22;6392;44.644;11.448;2023-01-24T01:01:43;5.70;99.90
12655;DHT22;6392;44.644;11.448;2023-01-24T01:04:10;5.70;99.90
12655;DHT22;6392;44.644;11.448;2023-01-24T01:06:37;5.80;99.90
12655;DHT22;6392;44.644;11.448;2023-01-24T01:09:05;5.80;99.90
12655;DHT22;6392;44.644;11.448;2023-01-24T01:11:34;5.90;99.90
12655;DHT22;6392;44.644;11.448;2023-01-24T01:14:01;5.90;99.90
12655;DHT22;6392;44.644;11.448;2023-01-24T01:16:28;5.90;99.90
12655;DHT22;6392;44.644;11.448;2023-01-24T01:18:55;5.90;99.90
12655;DHT22;6392;44.644;11.448;2023-01-24T01:21:22;5.90;99.90
12655;DHT22;6392;44.644;11.448;2023-01-24T01:23:50;5.90;99.90
12655;DHT22;6392;44.644;11.448;2023-01-24T01:26:20;5.90;99.90
12655;DHT22;6392;44.644;11.448;2023-01-24T01:28:47;5.90;99.90
12655;DHT22;6392;44.644;11.448;2023-01-24T01:31:15;5.90;99.90
12655;DHT22;6392;44.644;11.448;2023-01-24T01:33:43;5.90;99.90
12655;DHT22;6392;44.644;11.448;2023-01-24T01:36:10;5.90;99.90
12655;DHT22;6392;44.644;11.448;2023-01-24T01:38:37;5.90;99.90
12655;DHT22;6392;44.644;11.448;2023-01-24T01:41:05;5.90;99.90
12655;DHT22;6392;44.644;11.448;2023-01-24T01:43:33;5.90;99.90
12655;DHT22;6392;44.644;11.448;2023-01-24T01:46:07;5.90;99.90
12655;DHT22;6392;44.644;11.448;2023-01-24T01:48:43;5.90;99.90
12655;DHT22;6392;44.644;11.448;2023-01-24T01:51:15;5.80;99.90
12655;DHT22;6392;44.644;11.448;2023-01-24T01:53:46;5.90;99.90
12655;DHT22;6392;44.644;11.448;2023-01-24T01:56:19;5.90;99.90
12655;DHT22;6392;44.644;11.448;2023-01-24T01:58:49;5.90;99.90
12655;DHT22;6392;44.644;11.448;2023-01-24T02:01:17;5.90;99.90
12655;DHT22;6392;44.644;11.448;2023-01-24T02:03:49;5.90;99.90
12655;DHT22;6392;44.644;11.448;2023-01-24T02:06:27;5.90;99.90
12655;DHT22;6392;44.644;11.448;2023-01-24T02:08:57;6.00;99.90
12655;DHT22;6392;44.644;11.448;2023-01-24T02:11:25;6.00;99.90
12655;DHT22;6392;44.644;11.448;2023-01-24T02:14:07;6.10;99.90
12655;DHT22;6392;44.644;11.448;2023-01-24T02:16:52;6.10;99.90
12655;DHT22;6392;44.644;11.448;2023-01-24T02:22:15;6.10;99.90
12655;DHT22;6392;44.644;11.448;2023-01-24T02:24:50;6.00;99.90
12655;DHT22;6392;44.644;11.448;2023-01-24T02:27:20;6.00;99.90
12655;DHT22;6392;44.644;11.448;2023-01-24T02:29:47;6.00;99.90
12655;DHT22;6392;44.644;11.448;2023-01-24T02:32:14;5.90;99.90
12655;DHT22;6392;44.644;11.448;2023-01-24T02:34:43;5.90;99.90
12655;DHT22;6392;44.644;11.448;2023-01-24T02:37:13;6.00;99.90
12655;DHT22;6392;44.644;11.448;2023-01-24T02:39:47;6.00;99.90
12655;DHT22;6392;44.644;11.448;2023-01-24T02:42:17;6.00;99.90
12655;DHT22;6392;44.644;11.448;2023-01-24T02:44:51;6.00;99.90
12655;DHT22;6392;44.644;11.448;2023-01-24T02:47:19;6.00;99.90
12655;DHT22;6392;44.644;11.448;2023-01-24T02:49:46;6.10;99.90
12655;DHT22;6392;44.644;11.448;2023-01-24T02:52:13;6.00;99.90
12655;DHT22;6392;44.644;11.448;2023-01-24T02:54:58;6.00;99.90
12655;DHT22;6392;44.644;11.448;2023-01-24T02:57:25;6.00;99.90
12655;DHT22;6392;44.644;11.448;2023-01-24T03:00:12;6.00;99.90
12655;DHT22;6392;44.644;11.448;2023-01-24T03:02:39;6.00;99.90
12655;DHT22;6392;44.644;11.448;2023-01-24T03:05:06;6.00;99.90
12655;DHT22;6392;44.644;11.448;2023-01-24T03:07:33;6.00;99.90
12655;DHT22;6392;44.644;11.448;2023-01-24T03:10:10;6.00;99.90
12655;DHT22;6392;44.644;11.448;2023-01-24T03:12:38;6.00;99.90
12655;DHT22;6392;44.644;11.448;2023-01-24T03:15:24;6.00;99.90
12655;DHT22;6392;44.644;11.448;2023-01-24T03:18:09;6.00;99.90
12655;DHT22;6392;44.644;11.448;2023-01-24T03:20:54;6.00;99.90
12655;DHT22;6392;44.644;11.448;2023-01-24T03:23:38;5.90;99.90
12655;DHT22;6392;44.644;11.448;2023-01-24T03:26:23;5.90;99.90
12655;DHT22;6392;44.644;11.448;2023-01-24T03:29:08;5.90;99.90
12655;DHT22;6392;44.644;11.448;2023-01-24T03:31:55;5.90;99.90
12655;DHT22;6392;44.644;11.448;2023-01-24T03:34:39;5.90;99.90
12655;DHT22;6392;44.644;11.448;2023-01-24T03:37:16;5.90;99.90
12655;DHT22;6392;44.644;11.448;2023-01-24T03:40:04;5.90;99.90
12655;DHT22;6392;44.644;11.448;2023-01-24T03:42:32;5.90;99.90
12655;DHT22;6392;44.644;11.448;2023-01-24T03:44:59;5.90;99.90
12655;DHT22;6392;44.644;11.448;2023-01-24T03:47:27;5.90;99.90
12655;DHT22;6392;44.644;11.448;2023-01-24T03:49:54;6.00;99.90
12655;DHT22;6392;44.644;11.448;2023-01-24T03:52:38;6.00;99.90
12655;DHT22;6392;44.644;11.448;2023-01-24T03:55:06;6.00;99.90
12655;DHT22;6392;44.644;11.448;2023-01-24T03:57:33;6.00;99.90
12655;DHT22;6392;44.644;11.448;2023-01-24T04:00:00;6.00;99.90
12655;DHT22;6392;44.644;11.448;2023-01-24T04:02:29;6.00;99.90
12655;DHT22;6392;44.644;11.448;2023-01-24T04:04:56;6.00;99.90
12655;DHT22;6392;44.644;11.448;2023-01-24T04:07:41;6.00;99.90
12655;DHT22;6392;44.644;11.448;2023-01-24T04:10:09;5.90;99.90
12655;DHT22;6392;44.644;11.448;2023-01-24T04:12:37;5.90;99.90
12655;DHT22;6392;44.644;11.448;2023-01-24T04:15:05;5.90;99.90
12655;DHT22;6392;44.644;11.448;2023-01-24T04:17:33;5.90;99.90
12655;DHT22;6392;44.644;11.448;2023-01-24T04:20:00;6.10;99.90
12655;DHT22;6392;44.644;11.448;2023-01-24T04:22:28;6.00;99.90
12655;DHT22;6392;44.644;11.448;2023-01-24T04:24:55;5.90;99.90
12655;DHT22;6392;44.644;11.448;2023-01-24T04:27:22;5.90;99.90
12655;DHT22;6392;44.644;11.448;2023-01-24T04:29:49;5.90;99.90
12655;DHT22;6392;44.644;11.448;2023-01-24T04:32:16;5.90;99.90
12655;DHT22;6392;44.644;11.448;2023-01-24T04:34:44;5.90;99.90
12655;DHT22;6392;44.644;11.448;2023-01-24T04:37:11;5.80;99.90
12655;DHT22;6392;44.644;11.448;2023-01-24T04:39:38;5.70;99.90
12655;DHT22;6392;44.644;11.448;2023-01-24T04:42:05;5.70;99.90
12655;DHT22;6392;44.644;11.448;2023-01-24T04:44:33;5.70;99.90
12655;DHT22;6392;44.644;11.448;2023-01-24T04:47:00;5.60;99.90
12655;DHT22;6392;44.644;11.448;2023-01-24T04:49:27;5.60;99.90
12655;DHT22;6392;44.644;11.448;2023-01-24T04:51:56;5.70;99.90
12655;DHT22;6392;44.644;11.448;2023-01-24T04:54:23;5.60;99.90
12655;DHT22;6392;44.644;11.448;2023-01-24T04:56:50;5.60;99.90
12655;DHT22;6392;44.644;11.448;2023-01-24T04:59:17;5.60;99.90
12655;DHT22;6392;44.644;11.448;2023-01-24T05:01:45;5.60;99.90
12655;DHT22;6392;44.644;11.448;2023-01-24T05:04:12;5.60;99.90
12655;DHT22;6392;44.644;11.448;2023-01-24T05:06:40;5.60;99.90
12655;DHT22;6392;44.644;11.448;2023-01-24T05:09:09;5.60;99.90
12655;DHT22;6392;44.644;11.448;2023-01-24T05:11:36;5.60;99.90
12655;DHT22;6392;44.644;11.448;2023-01-24T05:14:03;5.60;99.90
12655;DHT22;6392;44.644;11.448;2023-01-24T05:16:30;5.60;99.90
12655;DHT22;6392;44.644;11.448;2023-01-24T05:18:57;5.60;99.90
12655;DHT22;6392;44.644;11.448;2023-01-24T05:21:24;5.50;99.90
12655;DHT22;6392;44.644;11.448;2023-01-24T05:23:52;5.50;99.90
12655;DHT22;6392;44.644;11.448;2023-01-24T05:26:22;5.50;99.90
12655;DHT22;6392;44.644;11.448;2023-01-24T05:28:49;5.50;99.90
12655;DHT22;6392;44.644;11.448;2023-01-24T05:31:17;5.50;99.90
12655;DHT22;6392;44.644;11.448;2023-01-24T05:33:44;5.50;99.90
12655;DHT22;6392;44.644;11.448;2023-01-24T05:36:14;5.50;99.90
12655;DHT22;6392;44.644;11.448;2023-01-24T05:38:42;5.50;99.90
12655;DHT22;6392;44.644;11.448;2023-01-24T05:41:12;5.50;99.90
12655;DHT22;6392;44.644;11.448;2023-01-24T05:43:43;5.50;99.90
12655;DHT22;6392;44.644;11.448;2023-01-24T05:46:12;5.60;99.90
12655;DHT22;6392;44.644;11.448;2023-01-24T05:48:39;5.60;99.90
12655;DHT22;6392;44.644;11.448;2023-01-24T05:51:07;5.60;99.90
12655;DHT22;6392;44.644;11.448;2023-01-24T05:53:37;5.60;99.90
12655;DHT22;6392;44.644;11.448;2023-01-24T05:56:05;5.60;99.90
12655;DHT22;6392;44.644;11.448;2023-01-24T05:58:35;5.60;99.90
12655;DHT22;6392;44.644;11.448;2023-01-24T06:01:07;5.60;99.90
12655;DHT22;6392;44.644;11.448;2023-01-24T06:03:36;5.60;99.90
12655;DHT22;6392;44.644;11.448;2023-01-24T06:06:04;5.60;99.90
12655;DHT22;6392;44.644;11.448;2023-01-24T06:08:31;5.50;99.90
12655;DHT22;6392;44.644;11.448;2023-01-24T06:11:02;5.50;99.90
12655;DHT22;6392;44.644;11.448;2023-01-24T06:13:29;5.50;99.90
12655;DHT22;6392;44.644;11.448;2023-01-24T06:16:01;5.50;99.90
12655;DHT22;6392;44.644;11.448;2023-01-24T06:18:30;5.50;99.90
12655;DHT22;6392;44.644;11.448;2023-01-24T06:20:57;5.50;99.90
12655;DHT22;6392;44.644;11.448;2023-01-24T06:23:26;5.40;99.90
12655;DHT22;6392;44.644;11.448;2023-01-24T06:25:54;5.40;99.90
12655;DHT22;6392;44.644;11.448;2023-01-24T06:28:22;5.50;99.90
12655;DHT22;6392;44.644;11.448;2023-01-24T06:30:58;5.40;99.90
12655;DHT22;6392;44.644;11.448;2023-01-24T06:33:36;5.50;99.90
12655;DHT22;6392;44.644;11.448;2023-01-24T06:36:22;5.50;99.90
12655;DHT22;6392;44.644;11.448;2023-01-24T06:38:52;5.60;99.90
12655;DHT22;6392;44.644;11.448;2023-01-24T06:41:20;5.50;99.90
12655;DHT22;6392;44.644;11.448;2023-01-24T06:43:47;5.60;99.90
12655;DHT22;6392;44.644;11.448;2023-01-24T06:46:14;5.60;99.90
12655;DHT22;6392;44.644;11.448;2023-01-24T06:48:44;5.60;99.90
12655;DHT22;6392;44.644;11.448;2023-01-24T06:51:12;5.60;99.90
12655;DHT22;6392;44.644;11.448;2023-01-24T06:53:40;5.60;99.90
12655;DHT22;6392;44.644;11.448;2023-01-24T06:56:08;5.60;99.90
12655;DHT22;6392;44.644;11.448;2023-01-24T06:58:35;5.60;99.90
12655;DHT22;6392;44.644;11.448;2023-01-24T07:01:02;5.60;99.90
12655;DHT22;6392;44.644;11.448;2023-01-24T07:03:30;5.70;99.90
12655;DHT22;6392;44.644;11.448;2023-01-24T07:05:58;5.80;99.90
12655;DHT22;6392;44.644;11.448;2023-01-24T07:08:26;5.80;99.90
12655;DHT22;6392;44.644;11.448;2023-01-24T07:10:53;5.70;99.90
12655;DHT22;6392;44.644;11.448;2023-01-24T07:13:20;5.70;99.90
12655;DHT22;6392;44.644;11.448;2023-01-24T07:15:47;5.70;99.90
12655;DHT22;6392;44.644;11.448;2023-01-24T07:18:16;5.80;99.90
12655;DHT22;6392;44.644;11.448;2023-01-24T07:20:44;5.80;99.90
12655;DHT22;6392;44.644;11.448;2023-01-24T07:23:23;5.80;99.90
12655;DHT22;6392;44.644;11.448;2023-01-24T07:25:51;5.90;99.90
12655;DHT22;6392;44.644;11.448;2023-01-24T07:28:19;6.00;99.90
12655;DHT22;6392;44.644;11.448;2023-01-24T07:30:47;6.00;99.90
12655;DHT22;6392;44.644;11.448;2023-01-24T07:33:14;6.10;99.90
12655;DHT22;6392;44.644;11.448;2023-01-24T07:35:42;6.10;99.90
12655;DHT22;6392;44.644;11.448;2023-01-24T07:38:09;6.20;99.90
12655;DHT22;6392;44.644;11.448;2023-01-24T07:40:39;6.20;99.90
12655;DHT22;6392;44.644;11.448;2023-01-24T07:43:07;6.20;99.90
12655;DHT22;6392;44.644;11.448;2023-01-24T07:45:34;6.20;99.90
12655;DHT22;6392;44.644;11.448;2023-01-24T07:48:04;6.20;99.90
12655;DHT22;6392;44.644;11.448;2023-01-24T07:50:32;6.20;99.90
12655;DHT22;6392;44.644;11.448;2023-01-24T07:52:59;6.30;99.90
12655;DHT22;6392;44.644;11.448;2023-01-24T07:55:27;6.30;99.90
12655;DHT22;6392;44.644;11.448;2023-01-24T07:58:00;6.30;99.90
12655;DHT22;6392;44.644;11.448;2023-01-24T08:00:27;6.30;99.90
12655;DHT22;6392;44.644;11.448;2023-01-24T08:02:54;6.30;99.90
12655;DHT22;6392;44.644;11.448;2023-01-24T08:05:21;6.40;99.90
12655;DHT22;6392;44.644;11.448;2023-01-24T08:07:48;6.40;99.90
12655;DHT22;6392;44.644;11.448;2023-01-24T08:10:15;6.40;99.90
12655;DHT22;6392;44.644;11.448;2023-01-24T08:12:42;6.50;99.90
12655;DHT22;6392;44.644;11.448;2023-01-24T08:15:11;6.50;99.90
12655;DHT22;6392;44.644;11.448;2023-01-24T08:17:38;6.50;99.90
12655;DHT22;6392;44.644;11.448;2023-01-24T08:20:06;6.50;99.90
12655;DHT22;6392;44.644;11.448;2023-01-24T08:22:34;6.50;99.90
12655;DHT22;6392;44.644;11.448;2023-01-24T08:25:01;6.50;99.90
12655;DHT22;6392;44.644;11.448;2023-01-24T08:27:28;6.50;99.90
12655;DHT22;6392;44.644;11.448;2023-01-24T08:29:55;6.60;99.90
12655;DHT22;6392;44.644;11.448;2023-01-24T08:32:23;6.60;99.90
12655;DHT22;6392;44.644;11.448;2023-01-24T08:34:51;6.60;99.90
12655;DHT22;6392;44.644;11.448;2023-01-24T08:37:18;6.60;99.90
12655;DHT22;6392;44.644;11.448;2023-01-24T08:39:45;6.60;99.90
12655;DHT22;6392;44.644;11.448;2023-01-24T08:42:12;6.60;99.90
12655;DHT22;6392;44.644;11.448;2023-01-24T08:44:39;6.60;99.90
12655;DHT22;6392;44.644;11.448;2023-01-24T08:47:06;6.60;99.90
12655;DHT22;6392;44.644;11.448;2023-01-24T08:49:34;6.70;99.90
12655;DHT22;6392;44.644;11.448;2023-01-24T08:52:01;6.70;99.90
12655;DHT22;6392;44.644;11.448;2023-01-24T08:54:29;6.70;99.90
12655;DHT22;6392;44.644;11.448;2023-01-24T08:56:58;6.80;99.90
12655;DHT22;6392;44.644;11.448;2023-01-24T08:59:25;6.90;99.90
12655;DHT22;6392;44.644;11.448;2023-01-24T09:01:52;7.00;99.90
12655;DHT22;6392;44.644;11.448;2023-01-24T09:04:19;7.00;99.90
12655;DHT22;6392;44.644;11.448;2023-01-24T09:06:48;7.10;99.90
12655;DHT22;6392;44.644;11.448;2023-01-24T09:09:17;7.20;99.90
12655;DHT22;6392;44.644;11.448;2023-01-24T09:11:44;7.20;99.90
12655;DHT22;6392;44.644;11.448;2023-01-24T09:14:11;7.20;99.90
12655;DHT22;6392;44.644;11.448;2023-01-24T09:16:38;7.30;99.90
12655;DHT22;6392;44.644;11.448;2023-01-24T09:19:05;7.30;99.90
12655;DHT22;6392;44.644;11.448;2023-01-24T09:21:33;7.30;99.90
12655;DHT22;6392;44.644;11.448;2023-01-24T09:24:02;7.30;99.90
12655;DHT22;6392;44.644;11.448;2023-01-24T09:26:29;7.40;99.90
12655;DHT22;6392;44.644;11.448;2023-01-24T09:28:56;7.50;99.90
12655;DHT22;6392;44.644;11.448;2023-01-24T09:31:23;7.50;99.90
12655;DHT22;6392;44.644;11.448;2023-01-24T09:33:50;7.60;99.90
12655;DHT22;6392;44.644;11.448;2023-01-24T09:36:17;7.50;99.90
12655;DHT22;6392;44.644;11.448;2023-01-24T09:38:44;7.60;99.90
12655;DHT22;6392;44.644;11.448;2023-01-24T09:41:18;7.60;99.90
12655;DHT22;6392;44.644;11.448;2023-01-24T09:43:51;7.70;99.90
12655;DHT22;6392;44.644;11.448;2023-01-24T09:46:30;7.80;99.90
12655;DHT22;6392;44.644;11.448;2023-01-24T09:49:07;7.90;99.90
12655;DHT22;6392;44.644;11.448;2023-01-24T09:51:40;7.90;99.90
12655;DHT22;6392;44.644;11.448;2023-01-24T09:54:12;7.90;99.90
12655;DHT22;6392;44.644;11.448;2023-01-24T09:56:45;7.90;99.90
12655;DHT22;6392;44.644;11.448;2023-01-24T09:59:20;7.90;99.90
12655;DHT22;6392;44.644;11.448;2023-01-24T10:01:48;7.90;99.90
12655;DHT22;6392;44.644;11.448;2023-01-24T10:04:18;7.90;99.90
12655;DHT22;6392;44.644;11.448;2023-01-24T10:07:23;7.90;99.90
12655;DHT22;6392;44.644;11.448;2023-01-24T10:10:02;8.00;99.90
12655;DHT22;6392;44.644;11.448;2023-01-24T10:12:43;8.10;99.90
12655;DHT22;6392;44.644;11.448;2023-01-24T10:15:20;8.10;99.90
12655;DHT22;6392;44.644;11.448;2023-01-24T10:21:21;8.10;99.90
12655;DHT22;6392;44.644;11.448;2023-01-24T10:23:53;8.10;99.90
12655;DHT22;6392;44.644;11.448;2023-01-24T10:26:23;8.20;99.90
12655;DHT22;6392;44.644;11.448;2023-01-24T10:28:54;8.30;99.90
12655;DHT22;6392;44.644;11.448;2023-01-24T10:31:25;8.30;99.90
12655;DHT22;6392;44.644;11.448;2023-01-24T10:33:55;8.50;99.90
12655;DHT22;6392;44.644;11.448;2023-01-24T10:36:30;8.60;99.90
12655;DHT22;6392;44.644;11.448;2023-01-24T10:39:00;8.70;99.90
12655;DHT22;6392;44.644;11.448;2023-01-24T10:41:30;8.70;99.90
12655;DHT22;6392;44.644;11.448;2023-01-24T10:44:03;8.60;99.90
12655;DHT22;6392;44.644;11.448;2023-01-24T10:46:44;8.60;99.90
12655;DHT22;6392;44.644;11.448;2023-01-24T10:49:19;8.60;99.90
12655;DHT22;6392;44.644;11.448;2023-01-24T10:52:09;8.60;99.90
12655;DHT22;6392;44.644;11.448;2023-01-24T10:54:44;8.70;99.90
12655;DHT22;6392;44.644;11.448;2023-01-24T10:57:17;8.70;99.90
12655;DHT22;6392;44.644;11.448;2023-01-24T10:59:46;8.70;99.90
12655;DHT22;6392;44.644;11.448;2023-01-24T11:02:20;8.70;99.90
12655;DHT22;6392;44.644;11.448;2023-01-24T11:04:58;8.70;99.90
12655;DHT22;6392;44.644;11.448;2023-01-24T11:07:28;8.80;99.90
12655;DHT22;6392;44.644;11.448;2023-01-24T11:09:59;8.90;99.90
12655;DHT22;6392;44.644;11.448;2023-01-24T11:12:27;9.00;99.90
12655;DHT22;6392;44.644;11.448;2023-01-24T11:14:55;9.10;99.90
12655;DHT22;6392;44.644;11.448;2023-01-24T11:17:31;9.10;99.90
12655;DHT22;6392;44.644;11.448;2023-01-24T11:20:02;9.10;99.90
12655;DHT22;6392;44.644;11.448;2023-01-24T11:26:04;9.20;99.90
12655;DHT22;6392;44.644;11.448;2023-01-24T11:28:32;9.30;99.90
12655;DHT22;6392;44.644;11.448;2023-01-24T11:31:04;9.40;99.90
12655;DHT22;6392;44.644;11.448;2023-01-24T11:33:59;9.40;99.90
12655;DHT22;6392;44.644;11.448;2023-01-24T11:47:09;9.40;99.90
12655;DHT22;6392;44.644;11.448;2023-01-24T12:23:51;9.80;99.90
12655;DHT22;6392;44.644;11.448;2023-01-24T12:26:24;9.70;99.90
12655;DHT22;6392;44.644;11.448;2023-01-24T12:29:00;9.80;99.90
12655;DHT22;6392;44.644;11.448;2023-01-24T12:31:34;9.80;99.90
12655;DHT22;6392;44.644;11.448;2023-01-24T12:34:08;9.80;99.90
12655;DHT22;6392;44.644;11.448;2023-01-24T12:36:39;9.80;99.90
12655;DHT22;6392;44.644;11.448;2023-01-24T12:39:15;9.80;99.90
12655;DHT22;6392;44.644;11.448;2023-01-24T12:41:49;9.90;99.90
12655;DHT22;6392;44.644;11.448;2023-01-24T12:44:26;9.90;99.90
12655;DHT22;6392;44.644;11.448;2023-01-24T12:50:12;9.90;99.90
12655;DHT22;6392;44.644;11.448;2023-01-24T12:52:44;9.90;99.90
12655;DHT22;6392;44.644;11.448;2023-01-24T12:55:17;9.90;99.90
12655;DHT22;6392;44.644;11.448;2023-01-24T12:57:49;9.90;99.90
12655;DHT22;6392;44.644;11.448;2023-01-24T13:00:23;9.90;99.90
12655;DHT22;6392;44.644;11.448;2023-01-24T13:03:11;10.00;99.90
12655;DHT22;6392;44.644;11.448;2023-01-24T13:05:52;10.20;99.90
12655;DHT22;6392;44.644;11.448;2023-01-24T13:08:32;10.30;99.90
12655;DHT22;6392;44.644;11.448;2023-01-24T13:11:17;10.40;99.90
12655;DHT22;6392;44.644;11.448;2023-01-24T13:13:52;10.50;99.90
12655;DHT22;6392;44.644;11.448;2023-01-24T13:17:01;10.60;99.90
12655;DHT22;6392;44.644;11.448;2023-01-24T13:19:39;10.70;99.90
12655;DHT22;6392;44.644;11.448;2023-01-24T13:22:22;10.80;99.90
12655;DHT22;6392;44.644;11.448;2023-01-24T13:24:58;10.80;99.90
12655;DHT22;6392;44.644;11.448;2023-01-24T13:27:36;10.70;99.90
12655;DHT22;6392;44.644;11.448;2023-01-24T13:30:18;10.70;99.90
12655;DHT22;6392;44.644;11.448;2023-01-24T13:32:48;10.70;99.90
12655;DHT22;6392;44.644;11.448;2023-01-24T13:35:18;10.70;99.90
12655;DHT22;6392;44.644;11.448;2023-01-24T13:37:51;10.70;99.90
12655;DHT22;6392;44.644;11.448;2023-01-24T13:40:24;10.70;99.90
12655;DHT22;6392;44.644;11.448;2023-01-24T13:42:55;10.70;99.90
12655;DHT22;6392;44.644;11.448;2023-01-24T13:45:56;10.90;99.90
12655;DHT22;6392;44.644;11.448;2023-01-24T13:48:42;10.90;99.90
12655;DHT22;6392;44.644;11.448;2023-01-24T13:51:33;10.80;99.90
12655;DHT22;6392;44.644;11.448;2023-01-24T13:54:02;10.80;99.90
12655;DHT22;6392;44.644;11.448;2023-01-24T13:56:30;10.70;99.90
12655;DHT22;6392;44.644;11.448;2023-01-24T13:58:59;10.70;99.90
12655;DHT22;6392;44.644;11.448;2023-01-24T14:01:27;10.70;99.90
12655;DHT22;6392;44.644;11.448;2023-01-24T14:03:58;10.70;99.90
12655;DHT22;6392;44.644;11.448;2023-01-24T14:06:26;10.70;99.90
12655;DHT22;6392;44.644;11.448;2023-01-24T14:09:13;10.70;99.90
12655;DHT22;6392;44.644;11.448;2023-01-24T14:12:01;10.70;99.90
12655;DHT22;6392;44.644;11.448;2023-01-24T14:14:34;10.70;99.90
12655;DHT22;6392;44.644;11.448;2023-01-24T14:17:25;10.70;99.90
12655;DHT22;6392;44.644;11.448;2023-01-24T14:19:54;10.70;99.90
12655;DHT22;6392;44.644;11.448;2023-01-24T14:22:28;10.70;99.90
12655;DHT22;6392;44.644;11.448;2023-01-24T14:25:02;10.80;99.90
12655;DHT22;6392;44.644;11.448;2023-01-24T14:27:36;10.80;99.90
12655;DHT22;6392;44.644;11.448;2023-01-24T14:30:30;10.80;99.90
12655;DHT22;6392;44.644;11.448;2023-01-24T14:33:03;10.90;99.90
12655;DHT22;6392;44.644;11.448;2023-01-24T14:35:33;10.90;99.90
12655;DHT22;6392;44.644;11.448;2023-01-24T14:38:12;11.00;99.90
12655;DHT22;6392;44.644;11.448;2023-01-24T14:40:41;10.90;99.90
12655;DHT22;6392;44.644;11.448;2023-01-24T14:43:10;10.80;99.90
12655;DHT22;6392;44.644;11.448;2023-01-24T14:45:40;10.80;99.90
12655;DHT22;6392;44.644;11.448;2023-01-24T14:48:10;10.70;99.90
12655;DHT22;6392;44.644;11.448;2023-01-24T14:50:38;10.70;99.90
12655;DHT22;6392;44.644;11.448;2023-01-24T14:53:23;10.60;99.90
12655;DHT22;6392;44.644;11.448;2023-01-24T14:55:52;10.60;99.90
12655;DHT22;6392;44.644;11.448;2023-01-24T14:58:21;10.60;99.90
12655;DHT22;6392;44.644;11.448;2023-01-24T15:00:51;10.60;99.90
12655;DHT22;6392;44.644;11.448;2023-01-24T15:03:21;10.60;99.90
12655;DHT22;6392;44.644;11.448;2023-01-24T15:05:54;10.60;99.90
12655;DHT22;6392;44.644;11.448;2023-01-24T15:08:21;10.60;99.90
12655;DHT22;6392;44.644;11.448;2023-01-24T15:10:57;10.50;99.90
12655;DHT22;6392;44.644;11.448;2023-01-24T15:13:29;10.50;99.90
12655;DHT22;6392;44.644;11.448;2023-01-24T15:15:58;10.50;99.90
12655;DHT22;6392;44.644;11.448;2023-01-24T15:18:33;10.40;99.90
12655;DHT22;6392;44.644;11.448;2023-01-24T15:21:01;10.40;99.90
12655;DHT22;6392;44.644;11.448;2023-01-24T15:23:30;10.40;99.90
12655;DHT22;6392;44.644;11.448;2023-01-24T15:25:58;10.30;99.90
12655;DHT22;6392;44.644;11.448;2023-01-24T15:28:45;10.30;99.90
12655;DHT22;6392;44.644;11.448;2023-01-24T15:31:19;10.30;99.90
12655;DHT22;6392;44.644;11.448;2023-01-24T15:33:53;10.30;99.90
12655;DHT22;6392;44.644;11.448;2023-01-24T15:36:25;10.20;99.90
12655;DHT22;6392;44.644;11.448;2023-01-24T15:38:54;10.20;99.90
12655;DHT22;6392;44.644;11.448;2023-01-24T15:41:23;10.20;99.90
12655;DHT22;6392;44.644;11.448;2023-01-24T15:44:10;10.10;99.90
12655;DHT22;6392;44.644;11.448;2023-01-24T15:46:39;10.10;99.90
12655;DHT22;6392;44.644;11.448;2023-01-24T15:49:29;10.10;99.90
12655;DHT22;6392;44.644;11.448;2023-01-24T15:52:24;10.10;99.90
12655;DHT22;6392;44.644;11.448;2023-01-24T15:54:56;10.00;99.90
12655;DHT22;6392;44.644;11.448;2023-01-24T15:57:27;10.00;99.90
12655;DHT22;6392;44.644;11.448;2023-01-24T15:59:58;10.00;99.90
12655;DHT22;6392;44.644;11.448;2023-01-24T16:02:27;10.00;99.90
12655;DHT22;6392;44.644;11.448;2023-01-24T16:04:55;9.90;99.90
12655;DHT22;6392;44.644;11.448;2023-01-24T16:07:22;9.90;99.90
12655;DHT22;6392;44.644;11.448;2023-01-24T16:09:49;9.90;99.90
12655;DHT22;6392;44.644;11.448;2023-01-24T16:12:19;9.90;99.90
12655;DHT22;6392;44.644;11.448;2023-01-24T16:14:49;9.80;99.90
12655;DHT22;6392;44.644;11.448;2023-01-24T16:17:19;9.80;99.90
12655;DHT22;6392;44.644;11.448;2023-01-24T16:19:48;9.80;99.90
12655;DHT22;6392;44.644;11.448;2023-01-24T16:22:15;9.70;99.90
12655;DHT22;6392;44.644;11.448;2023-01-24T16:24:43;9.70;99.90
12655;DHT22;6392;44.644;11.448;2023-01-24T16:27:11;9.70;99.90
12655;DHT22;6392;44.644;11.448;2023-01-24T16:29:39;9.60;99.90
12655;DHT22;6392;44.644;11.448;2023-01-24T16:32:18;9.60;99.90
12655;DHT22;6392;44.644;11.448;2023-01-24T16:34:45;9.60;99.90
12655;DHT22;6392;44.644;11.448;2023-01-24T16:37:14;9.60;99.90
12655;DHT22;6392;44.644;11.448;2023-01-24T16:39:44;9.60;99.90
12655;DHT22;6392;44.644;11.448;2023-01-24T16:42:14;9.50;99.90
12655;DHT22;6392;44.644;11.448;2023-01-24T16:44:42;9.60;99.90
12655;DHT22;6392;44.644;11.448;2023-01-24T16:47:09;9.60;99.90
12655;DHT22;6392;44.644;11.448;2023-01-24T16:49:36;9.60;99.90
12655;DHT22;6392;44.644;11.448;2023-01-24T16:52:04;9.60;99.90
12655;DHT22;6392;44.644;11.448;2023-01-24T16:54:32;9.60;99.90
12655;DHT22;6392;44.644;11.448;2023-01-24T16:56:59;9.60;99.90
12655;DHT22;6392;44.644;11.448;2023-01-24T16:59:26;9.60;99.90
12655;DHT22;6392;44.644;11.448;2023-01-24T17:01:54;9.60;99.90
12655;DHT22;6392;44.644;11.448;2023-01-24T17:04:21;9.60;99.90